createdAt,value
2016-11-03T00:00:37.333Z,925.02
2016-11-03T00:01:50.909Z,925.03
2016-11-03T00:03:02.938Z,925.06
2016-11-03T00:04:16.505Z,925.02
2016-11-03T00:05:30.110Z,925.09
2016-11-03T00:06:43.192Z,925.11
2016-11-03T00:07:56.229Z,925.08
2016-11-03T00:09:08.798Z,925.14
2016-11-03T00:10:22.448Z,925.22
2016-11-03T00:11:35.490Z,925.24
2016-11-03T00:12:48.574Z,925.23
2016-11-03T00:14:01.007Z,925.24
2016-11-03T00:15:14.576Z,925.26
2016-11-03T00:16:27.057Z,925.29
2016-11-03T00:17:40.794Z,925.3
2016-11-03T00:18:53.330Z,925.26
2016-11-03T00:20:06.355Z,925.25
2016-11-03T00:21:19.938Z,925.25
2016-11-03T00:22:33.508Z,925.21
2016-11-03T00:23:46.081Z,925.22
2016-11-03T00:24:59.746Z,925.22
2016-11-03T00:26:12.833Z,925.18
2016-11-03T00:27:24.832Z,925.18
2016-11-03T00:28:36.791Z,925.2
2016-11-03T00:29:49.931Z,925.18
2016-11-03T00:31:02.521Z,925.15
2016-11-03T00:32:15.615Z,925.15
2016-11-03T00:33:29.231Z,925.12
2016-11-03T00:34:41.272Z,925.07
2016-11-03T00:35:54.932Z,925.06
2016-11-03T00:37:08.014Z,925.02
2016-11-03T00:38:21.186Z,925.03
2016-11-03T00:39:34.812Z,925.03
2016-11-03T00:40:46.828Z,924.98
2016-11-03T00:42:00.465Z,924.97
2016-11-03T00:43:12.961Z,924.96
2016-11-03T00:44:25.474Z,924.94
2016-11-03T00:45:38.484Z,924.88
2016-11-03T00:46:52.054Z,924.88
2016-11-03T00:48:04.062Z,924.89
2016-11-03T00:49:17.620Z,924.87
2016-11-03T00:50:30.148Z,924.86
2016-11-03T00:51:43.777Z,924.87
2016-11-03T00:52:56.894Z,924.85
2016-11-03T00:54:10.418Z,924.82
2016-11-03T00:55:24.046Z,924.79
2016-11-03T00:56:36.094Z,924.8
2016-11-03T00:57:49.194Z,924.75
2016-11-03T00:59:01.206Z,924.74
2016-11-03T01:00:13.216Z,924.76
2016-11-03T01:01:26.787Z,924.81
2016-11-03T01:02:40.374Z,924.79
2016-11-03T01:03:53.496Z,924.84
2016-11-03T01:05:06.033Z,924.81
2016-11-03T01:06:18.595Z,924.8
2016-11-03T01:07:31.149Z,924.84
2016-11-03T01:08:44.787Z,924.84
2016-11-03T01:09:57.424Z,924.83
2016-11-03T01:11:11.042Z,924.89
2016-11-03T01:12:24.113Z,924.87
2016-11-03T01:13:37.263Z,924.93
2016-11-03T01:14:49.275Z,924.97
2016-11-03T01:16:01.257Z,924.93
2016-11-03T01:17:13.781Z,924.98
2016-11-03T01:18:27.367Z,924.97
2016-11-03T01:19:39.985Z,924.99
2016-11-03T01:20:51.504Z,925.02
2016-11-03T01:22:05.183Z,925.02
2016-11-03T01:23:17.722Z,925.02
2016-11-03T01:24:30.783Z,925.06
2016-11-03T01:25:44.420Z,925.03
2016-11-03T01:26:57.999Z,925.02
2016-11-03T01:28:11.564Z,924.95
2016-11-03T01:29:25.143Z,924.93
2016-11-03T01:30:38.269Z,924.91
2016-11-03T01:31:51.370Z,924.94
2016-11-03T01:33:04.419Z,924.93
2016-11-03T01:34:17.512Z,924.92
2016-11-03T01:35:30.559Z,924.9
2016-11-03T01:36:43.619Z,924.93
2016-11-03T01:37:57.186Z,924.87
2016-11-03T01:39:10.795Z,924.93
2016-11-03T01:40:23.326Z,924.91
2016-11-03T01:41:36.839Z,924.99
2016-11-03T01:42:50.441Z,924.97
2016-11-03T01:44:03.542Z,924.97
2016-11-03T01:45:16.057Z,924.97
2016-11-03T01:46:29.119Z,924.99
2016-11-03T01:47:41.116Z,925
2016-11-03T01:48:53.677Z,925.02
2016-11-03T01:50:06.764Z,924.97
2016-11-03T01:51:19.801Z,924.99
2016-11-03T01:52:32.867Z,924.92
2016-11-03T01:53:46.479Z,924.95
2016-11-03T01:54:59.507Z,924.92
2016-11-03T01:56:12.506Z,924.87
2016-11-03T01:57:26.102Z,924.88
2016-11-03T01:58:39.710Z,924.85
2016-11-03T01:59:52.734Z,924.89
2016-11-03T02:01:05.258Z,924.93
2016-11-03T02:02:18.280Z,924.9
2016-11-03T02:03:30.778Z,924.89
2016-11-03T02:04:42.746Z,924.87
2016-11-03T02:05:56.376Z,924.84
2016-11-03T02:07:09.447Z,924.85
2016-11-03T02:08:22.533Z,924.85
2016-11-03T02:09:35.603Z,924.86
2016-11-03T02:10:48.088Z,924.86
2016-11-03T02:12:01.748Z,924.83
2016-11-03T02:13:15.255Z,924.81
2016-11-03T02:14:28.293Z,924.79
2016-11-03T02:15:41.441Z,924.81
2016-11-03T02:16:53.943Z,924.77
2016-11-03T02:18:06.465Z,924.74
2016-11-03T02:19:20.130Z,924.69
2016-11-03T02:20:32.675Z,924.7
2016-11-03T02:21:45.764Z,924.76
2016-11-03T02:22:58.855Z,924.7
2016-11-03T02:24:11.903Z,924.7
2016-11-03T02:25:25.025Z,924.71
2016-11-03T02:26:38.566Z,924.65
2016-11-03T02:27:51.648Z,924.68
2016-11-03T02:29:04.650Z,924.64
2016-11-03T02:30:17.675Z,924.64
2016-11-03T02:31:29.723Z,924.64
2016-11-03T02:32:42.843Z,924.65
2016-11-03T02:33:54.896Z,924.62
2016-11-03T02:35:07.925Z,924.65
2016-11-03T02:36:21.040Z,924.63
2016-11-03T02:37:34.118Z,924.63
2016-11-03T02:38:47.711Z,924.68
2016-11-03T02:40:00.260Z,924.63
2016-11-03T02:41:13.931Z,924.68
2016-11-03T02:42:25.926Z,924.71
2016-11-03T02:43:39.095Z,924.68
2016-11-03T02:44:52.178Z,924.66
2016-11-03T02:46:05.316Z,924.63
2016-11-03T02:47:18.912Z,924.62
2016-11-03T02:48:31.477Z,924.64
2016-11-03T02:49:43.991Z,924.65
2016-11-03T02:50:55.990Z,924.62
2016-11-03T02:52:08.990Z,924.62
2016-11-03T02:53:22.581Z,924.64
2016-11-03T02:54:36.133Z,924.63
2016-11-03T02:55:49.267Z,924.65
2016-11-03T02:57:02.289Z,924.66
2016-11-03T02:58:14.288Z,924.7
2016-11-03T02:59:27.329Z,924.64
2016-11-03T03:00:40.363Z,924.63
2016-11-03T03:01:52.965Z,924.6
2016-11-03T03:03:06.070Z,924.6
2016-11-03T03:04:19.636Z,924.52
2016-11-03T03:05:33.220Z,924.51
2016-11-03T03:06:46.215Z,924.57
2016-11-03T03:07:58.214Z,924.52
2016-11-03T03:09:11.310Z,924.51
2016-11-03T03:10:23.310Z,924.53
2016-11-03T03:11:35.759Z,924.51
2016-11-03T03:12:48.838Z,924.57
2016-11-03T03:14:02.474Z,924.53
2016-11-03T03:15:15.074Z,924.56
2016-11-03T03:16:28.110Z,924.54
2016-11-03T03:17:41.694Z,924.5
2016-11-03T03:18:54.246Z,924.5
2016-11-03T03:20:06.755Z,924.53
2016-11-03T03:21:18.222Z,924.52
2016-11-03T03:22:30.211Z,924.52
2016-11-03T03:23:43.852Z,924.54
2016-11-03T03:24:56.917Z,924.52
2016-11-03T03:26:08.378Z,924.5
2016-11-03T03:27:20.941Z,924.49
2016-11-03T03:28:34.118Z,924.48
2016-11-03T03:29:47.712Z,924.49
2016-11-03T03:31:00.363Z,924.45
2016-11-03T03:32:13.977Z,924.49
2016-11-03T03:33:27.074Z,924.56
2016-11-03T03:34:39.591Z,924.53
2016-11-03T03:35:52.669Z,924.54
2016-11-03T03:37:06.290Z,924.51
2016-11-03T03:38:18.826Z,924.46
2016-11-03T03:39:31.889Z,924.5
2016-11-03T03:40:44.949Z,924.5
2016-11-03T03:41:57.979Z,924.47
2016-11-03T03:43:11.664Z,924.41
2016-11-03T03:44:24.856Z,924.38
2016-11-03T03:45:37.902Z,924.4
2016-11-03T03:46:50.915Z,924.37
2016-11-03T03:48:04.495Z,924.41
2016-11-03T03:49:17.027Z,924.35
2016-11-03T03:50:30.104Z,924.37
2016-11-03T03:51:42.626Z,924.34
2016-11-03T03:52:55.685Z,924.36
2016-11-03T03:54:08.784Z,924.33
2016-11-03T03:55:21.862Z,924.33
2016-11-03T03:56:35.429Z,924.28
2016-11-03T03:57:48.532Z,924.25
2016-11-03T03:59:00.515Z,924.26
2016-11-03T04:00:12.506Z,924.21
2016-11-03T04:01:25.600Z,924.23
2016-11-03T04:02:38.646Z,924.19
2016-11-03T04:03:51.722Z,924.25
2016-11-03T04:05:04.274Z,924.22
2016-11-03T04:06:16.285Z,924.24
2016-11-03T04:07:29.911Z,924.26
2016-11-03T04:08:42.488Z,924.26
2016-11-03T04:09:56.156Z,924.31
2016-11-03T04:11:08.635Z,924.32
2016-11-03T04:12:21.222Z,924.32
2016-11-03T04:13:33.255Z,924.32
2016-11-03T04:14:46.885Z,924.28
2016-11-03T04:15:59.997Z,924.28
2016-11-03T04:17:13.023Z,924.28
2016-11-03T04:18:26.667Z,924.26
2016-11-03T04:19:40.421Z,924.27
2016-11-03T04:20:52.976Z,924.29
2016-11-03T04:22:06.511Z,924.31
2016-11-03T04:23:19.132Z,924.32
2016-11-03T04:24:32.749Z,924.32
2016-11-03T04:25:45.239Z,924.28
2016-11-03T04:26:58.828Z,924.24
2016-11-03T04:28:11.851Z,924.31
2016-11-03T04:29:24.405Z,924.29
2016-11-03T04:30:37.463Z,924.31
2016-11-03T04:31:49.473Z,924.36
2016-11-03T04:33:02.524Z,924.35
2016-11-03T04:34:15.025Z,924.36
2016-11-03T04:35:27.565Z,924.38
2016-11-03T04:36:41.103Z,924.41
2016-11-03T04:37:54.696Z,924.42
2016-11-03T04:39:07.793Z,924.43
2016-11-03T04:40:19.791Z,924.43
2016-11-03T04:41:32.320Z,924.38
2016-11-03T04:42:45.421Z,924.39
2016-11-03T04:43:57.984Z,924.35
2016-11-03T04:45:11.028Z,924.42
2016-11-03T04:46:24.138Z,924.41
2016-11-03T04:47:37.716Z,924.42
2016-11-03T04:48:50.722Z,924.48
2016-11-03T04:50:03.207Z,924.49
2016-11-03T04:51:16.246Z,924.51
2016-11-03T04:52:29.294Z,924.49
2016-11-03T04:53:41.304Z,924.52
2016-11-03T04:54:54.966Z,924.52
2016-11-03T04:56:07.471Z,924.5
2016-11-03T04:57:19.981Z,924.48
2016-11-03T04:58:33.031Z,924.45
2016-11-03T04:59:45.583Z,924.45
2016-11-03T05:00:58.054Z,924.45
2016-11-03T05:02:11.147Z,924.42
2016-11-03T05:03:23.720Z,924.38
2016-11-03T05:04:36.242Z,924.34
2016-11-03T05:05:49.275Z,924.37
2016-11-03T05:07:01.845Z,924.38
2016-11-03T05:08:13.835Z,924.31
2016-11-03T05:09:26.378Z,924.36
2016-11-03T05:10:39.426Z,924.3
2016-11-03T05:11:52.989Z,924.37
2016-11-03T05:13:04.966Z,924.42
2016-11-03T05:14:18.574Z,924.43
2016-11-03T05:15:31.578Z,924.46
2016-11-03T05:16:45.257Z,924.45
2016-11-03T05:17:58.819Z,924.41
2016-11-03T05:19:10.821Z,924.4
2016-11-03T05:20:23.905Z,924.38
2016-11-03T05:21:35.886Z,924.41
2016-11-03T05:22:48.400Z,924.39
2016-11-03T05:24:00.884Z,924.42
2016-11-03T05:25:13.949Z,924.46
2016-11-03T05:26:27.060Z,924.45
2016-11-03T05:27:39.630Z,924.41
2016-11-03T05:28:52.687Z,924.47
2016-11-03T05:30:06.293Z,924.47
2016-11-03T05:31:18.907Z,924.44
2016-11-03T05:32:32.450Z,924.47
2016-11-03T05:33:44.517Z,924.43
2016-11-03T05:34:58.134Z,924.46
2016-11-03T05:36:09.084Z,924.52
2016-11-03T05:37:22.132Z,924.54
2016-11-03T05:38:34.626Z,924.55
2016-11-03T05:39:48.205Z,924.61
2016-11-03T05:41:01.237Z,924.62
2016-11-03T05:42:14.270Z,924.6
2016-11-03T05:43:26.808Z,924.66
2016-11-03T05:44:39.857Z,924.67
2016-11-03T05:45:52.912Z,924.69
2016-11-03T05:47:05.420Z,924.71
2016-11-03T05:48:18.507Z,924.73
2016-11-03T05:49:32.074Z,924.75
2016-11-03T05:50:44.005Z,924.75
2016-11-03T05:51:57.081Z,924.76
2016-11-03T05:53:09.577Z,924.77
2016-11-03T05:54:23.157Z,924.78
2016-11-03T05:55:35.771Z,924.76
2016-11-03T05:56:48.301Z,924.75
2016-11-03T05:58:00.845Z,924.79
2016-11-03T05:59:14.450Z,924.76
2016-11-03T06:00:27.508Z,924.82
2016-11-03T06:01:39.510Z,924.82
2016-11-03T06:02:52.558Z,924.82
2016-11-03T06:04:05.646Z,924.83
2016-11-03T06:05:18.724Z,924.85
2016-11-03T06:06:31.314Z,924.8
2016-11-03T06:07:44.301Z,924.8
2016-11-03T06:08:56.290Z,924.84
2016-11-03T06:10:08.837Z,924.82
2016-11-03T06:11:22.404Z,924.79
2016-11-03T06:12:34.932Z,924.81
2016-11-03T06:13:47.965Z,924.79
2016-11-03T06:15:01.519Z,924.83
2016-11-03T06:16:14.606Z,924.82
2016-11-03T06:17:28.211Z,924.83
2016-11-03T06:18:41.269Z,924.87
2016-11-03T06:19:54.341Z,924.89
2016-11-03T06:21:07.932Z,924.88
2016-11-03T06:22:20.971Z,924.86
2016-11-03T06:23:34.030Z,924.83
2016-11-03T06:24:46.584Z,924.89
2016-11-03T06:25:59.573Z,924.83
2016-11-03T06:27:12.566Z,924.85
2016-11-03T06:28:24.559Z,924.86
2016-11-03T06:29:37.126Z,924.88
2016-11-03T06:30:50.234Z,924.87
2016-11-03T06:32:02.220Z,924.87
2016-11-03T06:33:15.252Z,924.9
2016-11-03T06:34:28.357Z,924.9
2016-11-03T06:35:41.420Z,924.93
2016-11-03T06:36:55.016Z,924.92
2016-11-03T06:38:08.039Z,924.95
2016-11-03T06:39:21.098Z,924.98
2016-11-03T06:40:34.256Z,924.99
2016-11-03T06:41:47.311Z,925
2016-11-03T06:42:59.869Z,925.04
2016-11-03T06:44:12.965Z,925.06
2016-11-03T06:45:26.511Z,925.08
2016-11-03T06:46:40.085Z,925.11
2016-11-03T06:47:53.195Z,925.13
2016-11-03T06:49:06.245Z,925.16
2016-11-03T06:50:19.866Z,925.16
2016-11-03T06:51:31.825Z,925.19
2016-11-03T06:52:45.422Z,925.28
2016-11-03T06:53:58.455Z,925.24
2016-11-03T06:55:11.026Z,925.26
2016-11-03T06:56:24.135Z,925.25
2016-11-03T06:57:37.711Z,925.24
2016-11-03T06:58:51.224Z,925.24
2016-11-03T07:00:04.256Z,925.29
2016-11-03T07:01:16.867Z,925.31
2016-11-03T07:02:29.871Z,925.34
2016-11-03T07:03:42.868Z,925.36
2016-11-03T07:04:55.450Z,925.42
2016-11-03T07:06:07.992Z,925.42
2016-11-03T07:07:21.616Z,925.45
2016-11-03T07:08:35.200Z,925.42
2016-11-03T07:09:48.775Z,925.48
2016-11-03T07:11:01.832Z,925.47
2016-11-03T07:12:13.834Z,925.52
2016-11-03T07:13:27.808Z,925.56
2016-11-03T07:14:41.480Z,925.53
2016-11-03T07:15:54.515Z,925.56
2016-11-03T07:17:07.026Z,925.59
2016-11-03T07:18:19.586Z,925.64
2016-11-03T07:19:33.202Z,925.65
2016-11-03T07:20:45.275Z,925.71
2016-11-03T07:21:58.416Z,925.72
2016-11-03T07:23:11.564Z,925.75
2016-11-03T07:24:23.581Z,925.77
2016-11-03T07:25:36.644Z,925.77
2016-11-03T07:26:49.677Z,925.81
2016-11-03T07:28:02.163Z,925.82
2016-11-03T07:29:14.725Z,925.85
2016-11-03T07:30:28.296Z,925.84
2016-11-03T07:31:41.325Z,925.86
2016-11-03T07:32:53.836Z,925.91
2016-11-03T07:34:06.931Z,925.88
2016-11-03T07:35:18.938Z,925.9
2016-11-03T07:36:30.935Z,925.92
2016-11-03T07:37:43.978Z,925.87
2016-11-03T07:38:56.028Z,925.88
2016-11-03T07:40:07.976Z,925.9
2016-11-03T07:41:20.524Z,925.89
2016-11-03T07:42:33.629Z,925.9
2016-11-03T07:43:45.670Z,925.92
2016-11-03T07:44:58.195Z,925.87
2016-11-03T07:46:11.298Z,925.87
2016-11-03T07:47:24.300Z,925.9
2016-11-03T07:48:37.259Z,925.9
2016-11-03T07:49:50.356Z,925.91
2016-11-03T07:51:03.460Z,925.92
2016-11-03T07:52:17.056Z,925.91
2016-11-03T07:53:30.163Z,925.93
2016-11-03T07:54:43.256Z,925.98
2016-11-03T07:55:56.863Z,925.98
2016-11-03T07:57:09.888Z,926.04
2016-11-03T07:58:23.519Z,926.07
2016-11-03T07:59:36.562Z,926.02
2016-11-03T08:00:50.165Z,926.01
2016-11-03T08:02:02.675Z,926.02
2016-11-03T08:03:15.746Z,926.07
2016-11-03T08:04:28.259Z,926.04
2016-11-03T08:05:40.230Z,926.12
2016-11-03T08:06:53.846Z,926.17
2016-11-03T08:08:06.949Z,926.17
2016-11-03T08:09:19.992Z,926.2
2016-11-03T08:10:32.553Z,926.24
2016-11-03T08:11:46.110Z,926.26
2016-11-03T08:12:59.147Z,926.32
2016-11-03T08:14:11.178Z,926.3
2016-11-03T08:15:23.785Z,926.36
2016-11-03T08:16:37.422Z,926.36
2016-11-03T08:17:49.990Z,926.4
2016-11-03T08:19:01.966Z,926.41
2016-11-03T08:20:14.478Z,926.42
2016-11-03T08:21:27.493Z,926.39
2016-11-03T08:22:40.066Z,926.43
2016-11-03T08:23:53.723Z,926.45
2016-11-03T08:25:06.274Z,926.44
2016-11-03T08:26:18.789Z,926.48
2016-11-03T08:27:31.907Z,926.52
2016-11-03T08:28:44.384Z,926.52
2016-11-03T08:29:56.365Z,926.54
2016-11-03T08:31:09.427Z,926.52
2016-11-03T08:32:21.954Z,926.56
2016-11-03T08:33:35.050Z,926.57
2016-11-03T08:34:48.120Z,926.58
2016-11-03T08:36:00.640Z,926.61
2016-11-03T08:37:14.252Z,926.65
2016-11-03T08:38:26.788Z,926.72
2016-11-03T08:39:38.753Z,926.7
2016-11-03T08:40:51.363Z,926.7
2016-11-03T08:42:04.447Z,926.76
2016-11-03T08:43:17.507Z,926.75
2016-11-03T08:44:30.047Z,926.78
2016-11-03T08:45:43.357Z,926.78
2016-11-03T08:46:56.386Z,926.84
2016-11-03T08:48:10.009Z,926.87
2016-11-03T08:49:23.589Z,926.85
2016-11-03T08:50:36.664Z,926.9
2016-11-03T08:51:50.274Z,926.91
2016-11-03T08:53:02.812Z,926.97
2016-11-03T08:54:15.889Z,926.95
2016-11-03T08:55:28.932Z,926.99
2016-11-03T08:56:42.037Z,926.97
2016-11-03T08:57:55.677Z,926.96
2016-11-03T08:59:08.149Z,926.97
2016-11-03T09:00:21.149Z,926.95
2016-11-03T09:01:34.226Z,926.99
2016-11-03T09:02:47.253Z,927.03
2016-11-03T09:04:00.876Z,927.04
2016-11-03T09:05:14.487Z,927.06
2016-11-03T09:06:27.531Z,927.06
2016-11-03T09:07:41.119Z,927.07
2016-11-03T09:08:54.231Z,927.09
2016-11-03T09:10:06.831Z,927.12
2016-11-03T09:11:19.892Z,927.12
2016-11-03T09:12:31.871Z,927.15
2016-11-03T09:13:44.946Z,927.19
2016-11-03T09:14:58.522Z,927.15
2016-11-03T09:16:11.499Z,927.14
2016-11-03T09:17:24.522Z,927.22
2016-11-03T09:18:37.545Z,927.25
2016-11-03T09:19:51.087Z,927.3
2016-11-03T09:21:04.621Z,927.28
2016-11-03T09:22:18.152Z,927.29
2016-11-03T09:23:31.207Z,927.28
2016-11-03T09:24:44.261Z,927.27
2016-11-03T09:25:57.925Z,927.32
2016-11-03T09:27:11.561Z,927.31
2016-11-03T09:28:23.561Z,927.32
2016-11-03T09:29:36.636Z,927.31
2016-11-03T09:30:50.297Z,927.35
2016-11-03T09:32:03.869Z,927.36
2016-11-03T09:33:16.913Z,927.42
2016-11-03T09:34:30.480Z,927.45
2016-11-03T09:35:44.128Z,927.42
2016-11-03T09:36:57.224Z,927.48
2016-11-03T09:38:10.843Z,927.49
2016-11-03T09:39:23.949Z,927.51
2016-11-03T09:40:37.029Z,927.48
2016-11-03T09:41:49.088Z,927.53
2016-11-03T09:43:02.184Z,927.52
2016-11-03T09:44:15.295Z,927.54
2016-11-03T09:45:27.803Z,927.57
2016-11-03T09:46:40.262Z,927.59
2016-11-03T09:47:52.800Z,927.61
2016-11-03T09:49:05.859Z,927.59
2016-11-03T09:50:19.453Z,927.62
2016-11-03T09:51:33.044Z,927.61
2016-11-03T09:52:46.649Z,927.59
2016-11-03T09:54:00.237Z,927.64
2016-11-03T09:55:13.826Z,927.71
2016-11-03T09:56:27.423Z,927.71
2016-11-03T09:57:41.001Z,927.65
2016-11-03T09:58:54.610Z,927.67
2016-11-03T10:00:08.269Z,927.66
2016-11-03T10:01:21.833Z,927.71
2016-11-03T10:02:35.469Z,927.65
2016-11-03T10:03:48.552Z,927.7
2016-11-03T10:05:02.343Z,927.73
2016-11-03T10:06:15.399Z,927.73
2016-11-03T10:07:28.481Z,927.71
2016-11-03T10:08:41.560Z,927.71
2016-11-03T10:09:54.054Z,927.72
2016-11-03T10:11:06.588Z,927.74
2016-11-03T10:12:20.159Z,927.73
2016-11-03T10:13:33.792Z,927.76
2016-11-03T10:14:45.843Z,927.77
2016-11-03T10:15:58.272Z,927.77
2016-11-03T10:17:10.780Z,927.81
2016-11-03T10:18:23.385Z,927.78
2016-11-03T10:19:35.400Z,927.79
2016-11-03T10:20:49.050Z,927.81
2016-11-03T10:22:02.135Z,927.84
2016-11-03T10:23:15.105Z,927.86
2016-11-03T10:24:27.094Z,927.87
2016-11-03T10:25:39.108Z,927.88
2016-11-03T10:26:52.225Z,927.88
2016-11-03T10:28:04.768Z,927.89
2016-11-03T10:29:18.379Z,927.95
2016-11-03T10:30:30.846Z,927.98
2016-11-03T10:31:42.898Z,927.98
2016-11-03T10:32:56.015Z,928.05
2016-11-03T10:34:09.588Z,928.06
2016-11-03T10:35:22.620Z,928.09
2016-11-03T10:36:36.191Z,928.12
2016-11-03T10:37:49.230Z,928.12
2016-11-03T10:39:01.747Z,928.12
2016-11-03T10:40:13.818Z,928.11
2016-11-03T10:41:25.791Z,928.1
2016-11-03T10:42:38.838Z,928.13
2016-11-03T10:43:51.974Z,928.12
2016-11-03T10:45:05.006Z,928.12
2016-11-03T10:46:18.062Z,928.11
2016-11-03T10:47:31.680Z,928.15
2016-11-03T10:48:44.216Z,928.13
2016-11-03T10:49:56.257Z,928.2
2016-11-03T10:51:09.957Z,928.24
2016-11-03T10:52:23.014Z,928.23
2016-11-03T10:53:36.641Z,928.22
2016-11-03T10:54:50.206Z,928.19
2016-11-03T10:56:03.273Z,928.2
2016-11-03T10:57:15.259Z,928.19
2016-11-03T10:58:27.769Z,928.21
2016-11-03T10:59:41.388Z,928.23
2016-11-03T11:00:53.916Z,928.24
2016-11-03T11:02:06.446Z,928.25
2016-11-03T11:03:18.986Z,928.32
2016-11-03T11:04:32.022Z,928.37
2016-11-03T11:05:44.033Z,928.39
2016-11-03T11:06:57.587Z,928.47
2016-11-03T11:08:10.629Z,928.48
2016-11-03T11:09:23.722Z,928.44
2016-11-03T11:10:36.801Z,928.41
2016-11-03T11:11:50.456Z,928.36
2016-11-03T11:13:03.556Z,928.37
2016-11-03T11:14:17.116Z,928.44
2016-11-03T11:15:30.126Z,928.45
2016-11-03T11:16:43.708Z,928.47
2016-11-03T11:17:56.810Z,928.53
2016-11-03T11:19:09.363Z,928.57
2016-11-03T11:20:22.430Z,928.6
2016-11-03T11:21:35.487Z,928.67
2016-11-03T11:22:48.005Z,928.73
2016-11-03T11:23:59.919Z,928.79
2016-11-03T11:25:13.484Z,928.8
2016-11-03T11:26:26.544Z,928.79
2016-11-03T11:27:40.144Z,928.78
2016-11-03T11:28:52.641Z,928.78
2016-11-03T11:30:05.722Z,928.75
2016-11-03T11:31:18.752Z,928.73
2016-11-03T11:32:31.287Z,928.71
2016-11-03T11:33:44.876Z,928.72
2016-11-03T11:34:57.921Z,928.74
2016-11-03T11:36:10.520Z,928.79
2016-11-03T11:37:24.210Z,928.83
2016-11-03T11:38:37.351Z,928.88
2016-11-03T11:39:50.929Z,928.91
2016-11-03T11:41:04.561Z,928.94
2016-11-03T11:42:17.549Z,929.01
2016-11-03T11:43:30.675Z,929.03
2016-11-03T11:44:44.259Z,929.03
2016-11-03T11:45:57.886Z,929.1
2016-11-03T11:47:10.980Z,929.18
2016-11-03T11:48:23.530Z,929.15
2016-11-03T11:49:36.048Z,929.18
2016-11-03T11:50:49.639Z,929.19
2016-11-03T11:52:02.730Z,929.2
2016-11-03T11:53:15.779Z,929.22
2016-11-03T11:54:28.749Z,929.26
2016-11-03T11:55:42.294Z,929.2
2016-11-03T11:56:54.758Z,929.2
2016-11-03T11:58:08.317Z,929.24
2016-11-03T11:59:20.834Z,929.2
2016-11-03T12:00:33.935Z,929.23
2016-11-03T12:01:46.995Z,929.27
2016-11-03T12:03:00.020Z,929.29
2016-11-03T12:04:13.048Z,929.29
2016-11-03T12:05:26.662Z,929.34
2016-11-03T12:06:39.733Z,929.33
2016-11-03T12:07:52.855Z,929.39
2016-11-03T12:09:05.918Z,929.39
2016-11-03T12:10:19.499Z,929.44
2016-11-03T12:11:32.605Z,929.44
2016-11-03T12:12:45.133Z,929.44
2016-11-03T12:13:58.219Z,929.5
2016-11-03T12:15:11.286Z,929.5
2016-11-03T12:16:24.875Z,929.49
2016-11-03T12:17:38.409Z,929.49
2016-11-03T12:18:51.559Z,929.46
2016-11-03T12:20:04.593Z,929.55
2016-11-03T12:21:17.668Z,929.54
2016-11-03T12:22:30.752Z,929.58
2016-11-03T12:23:43.293Z,929.6
2016-11-03T12:24:56.359Z,929.57
2016-11-03T12:26:08.941Z,929.61
2016-11-03T12:27:22.595Z,929.56
2016-11-03T12:28:35.644Z,929.6
2016-11-03T12:29:49.247Z,929.62
2016-11-03T12:31:02.848Z,929.6
2016-11-03T12:32:15.855Z,929.62
2016-11-03T12:33:28.920Z,929.65
2016-11-03T12:34:41.923Z,929.68
2016-11-03T12:35:55.604Z,929.71
2016-11-03T12:37:08.680Z,929.68
2016-11-03T12:38:21.681Z,929.75
2016-11-03T12:39:34.729Z,929.82
2016-11-03T12:40:47.285Z,929.86
2016-11-03T12:42:00.876Z,929.88
2016-11-03T12:43:13.948Z,929.93
2016-11-03T12:44:26.920Z,929.93
2016-11-03T12:45:39.398Z,929.96
2016-11-03T12:46:51.973Z,930.06
2016-11-03T12:48:05.037Z,930.06
2016-11-03T12:49:18.085Z,930.1
2016-11-03T12:50:31.636Z,930.11
2016-11-03T12:51:44.195Z,930.12
2016-11-03T12:52:56.608Z,930.09
2016-11-03T12:54:08.111Z,930.13
2016-11-03T12:55:21.742Z,930.06
2016-11-03T12:56:35.280Z,930.11
2016-11-03T12:57:48.864Z,930.21
2016-11-03T12:59:02.436Z,930.22
2016-11-03T13:00:15.508Z,930.11
2016-11-03T13:01:28.639Z,930.06
2016-11-03T13:02:41.725Z,930.07
2016-11-03T13:03:55.248Z,930.06
2016-11-03T13:05:07.279Z,930.18
2016-11-03T13:06:20.353Z,930.15
2016-11-03T13:07:33.966Z,930.1
2016-11-03T13:08:47.017Z,930.08
2016-11-03T13:10:00.523Z,930.09
2016-11-03T13:11:12.524Z,930.04
2016-11-03T13:12:24.509Z,930.11
2016-11-03T13:13:37.586Z,930.11
2016-11-03T13:14:50.151Z,930.1
2016-11-03T13:16:02.717Z,930.02
2016-11-03T13:17:16.320Z,929.97
2016-11-03T13:18:28.309Z,929.94
2016-11-03T13:19:40.922Z,930.02
2016-11-03T13:20:52.397Z,929.99
2016-11-03T13:22:05.003Z,929.97
2016-11-03T13:23:18.097Z,929.8
2016-11-03T13:24:30.659Z,929.87
2016-11-03T13:25:44.252Z,929.89
2016-11-03T13:26:57.890Z,929.87
2016-11-03T13:28:10.996Z,929.92
2016-11-03T13:29:24.588Z,929.9
2016-11-03T13:30:36.633Z,929.93
2016-11-03T13:31:48.570Z,929.92
2016-11-03T13:33:02.193Z,929.94
2016-11-03T13:34:15.221Z,929.94
2016-11-03T13:35:27.736Z,929.94
2016-11-03T13:36:41.444Z,929.93
2016-11-03T13:37:54.595Z,929.94
2016-11-03T13:39:07.682Z,929.92
2016-11-03T13:40:20.740Z,929.97
2016-11-03T13:41:33.714Z,929.91
2016-11-03T13:42:46.250Z,929.89
2016-11-03T13:43:59.374Z,929.86
2016-11-03T13:45:13.091Z,929.91
2016-11-03T13:46:26.661Z,929.92
2016-11-03T13:47:39.814Z,929.91
2016-11-03T13:48:52.934Z,929.92
2016-11-03T13:50:06.026Z,929.89
2016-11-03T13:51:19.066Z,929.94
2016-11-03T13:52:32.736Z,929.94
2016-11-03T13:53:45.804Z,929.93
2016-11-03T13:54:57.822Z,929.85
2016-11-03T13:56:10.950Z,929.84
2016-11-03T13:57:24.067Z,929.81
2016-11-03T13:58:37.173Z,929.82
2016-11-03T13:59:50.836Z,929.85
2016-11-03T14:01:04.479Z,929.81
2016-11-03T14:02:17.524Z,929.82
2016-11-03T14:03:31.217Z,929.82
2016-11-03T14:04:44.333Z,929.82
2016-11-03T14:05:57.471Z,929.8
2016-11-03T14:07:10.693Z,929.81
2016-11-03T14:08:23.280Z,929.84
2016-11-03T14:09:36.871Z,929.81
2016-11-03T14:10:50.518Z,929.79
2016-11-03T14:12:03.691Z,929.77
2016-11-03T14:13:16.829Z,929.76
2016-11-03T14:14:30.373Z,929.82
2016-11-03T14:15:43.481Z,929.79
2016-11-03T14:16:56.011Z,929.85
2016-11-03T14:18:09.661Z,929.87
2016-11-03T14:19:23.258Z,929.88
2016-11-03T14:20:35.891Z,929.9
2016-11-03T14:21:49.488Z,929.94
2016-11-03T14:23:02.572Z,929.91
2016-11-03T14:24:16.225Z,929.9
2016-11-03T14:25:28.761Z,929.87
2016-11-03T14:26:41.287Z,929.92
2016-11-03T14:27:54.418Z,929.89
2016-11-03T14:29:08.022Z,929.91
2016-11-03T14:30:21.597Z,929.9
2016-11-03T14:31:34.695Z,929.92
2016-11-03T14:32:47.833Z,929.91
2016-11-03T14:34:00.951Z,929.9
2016-11-03T14:35:14.173Z,929.89
2016-11-03T14:36:27.806Z,929.91
2016-11-03T14:37:40.975Z,929.92
2016-11-03T14:38:54.660Z,930
2016-11-03T14:40:07.962Z,929.98
2016-11-03T14:41:20.971Z,929.99
2016-11-03T14:42:34.060Z,930.03
2016-11-03T14:43:47.645Z,930
2016-11-03T14:45:01.356Z,929.97
2016-11-03T14:46:14.554Z,929.95
2016-11-03T14:47:27.824Z,929.98
2016-11-03T14:48:40.491Z,929.94
2016-11-03T14:49:52.543Z,930
2016-11-03T14:51:06.247Z,930.03
2016-11-03T14:52:19.853Z,929.98
2016-11-03T14:53:33.511Z,930
2016-11-03T14:54:47.132Z,929.96
2016-11-03T14:55:59.710Z,929.99
2016-11-03T14:57:12.254Z,929.96
2016-11-03T14:58:24.349Z,929.99
2016-11-03T14:59:35.932Z,929.98
2016-11-03T15:00:49.155Z,929.99
2016-11-03T15:02:01.252Z,929.97
2016-11-03T15:03:14.908Z,930.02
2016-11-03T15:04:28.042Z,930.03
2016-11-03T15:05:41.775Z,929.99
2016-11-03T15:06:55.793Z,930.03
2016-11-03T15:08:09.429Z,929.99
2016-11-03T15:09:23.071Z,930.01
2016-11-03T15:10:36.176Z,930.02
2016-11-03T15:11:49.917Z,930.01
2016-11-03T15:13:03.002Z,930.03
2016-11-03T15:14:16.705Z,930.02